createdAt,value
2017-09-22T00:02:05.289Z,30.17
2017-09-22T00:04:32.613Z,27.87
2017-09-22T00:06:59.916Z,31.27
2017-09-22T00:09:27.249Z,29.63
2017-09-22T00:11:54.588Z,29.60
2017-09-22T00:14:21.954Z,33.60
2017-09-22T00:16:49.256Z,34.60
2017-09-22T00:19:16.596Z,38.27
2017-09-22T00:21:43.948Z,36.30
2017-09-22T00:24:11.277Z,36.83
2017-09-22T00:26:38.624Z,32.93
2017-09-22T00:29:05.966Z,31.67
2017-09-22T00:31:33.316Z,32.80
2017-09-22T00:34:00.649Z,35.90
2017-09-22T00:36:27.961Z,33.60
2017-09-22T00:38:55.290Z,25.40
2017-09-22T00:41:22.621Z,26.87
2017-09-22T00:43:49.936Z,24.83
2017-09-22T00:46:17.252Z,29.83
2017-09-22T00:48:44.619Z,25.00
2017-09-22T00:51:11.932Z,33.23
2017-09-22T00:53:39.269Z,28.37
2017-09-22T00:56:06.586Z,27.87
2017-09-22T00:58:33.894Z,25.70
2017-09-22T01:01:01.227Z,26.63
2017-09-22T01:03:28.535Z,30.70
2017-09-22T01:05:55.885Z,29.73
2017-09-22T01:08:23.251Z,27.77
2017-09-22T01:10:50.576Z,32.73
2017-09-22T01:13:17.913Z,29.50
2017-09-22T01:15:45.232Z,31.93
2017-09-22T01:18:12.550Z,38.70
2017-09-22T01:20:39.851Z,34.33
2017-09-22T01:23:07.181Z,38.03
2017-09-22T01:25:34.510Z,39.27
2017-09-22T01:28:02.185Z,38.73
2017-09-22T01:30:29.476Z,43.67
2017-09-22T01:32:56.792Z,34.37
2017-09-22T01:35:24.091Z,33.83
2017-09-22T01:37:51.414Z,33.07
2017-09-22T01:40:18.751Z,32.33
2017-09-22T01:42:46.112Z,28.67
2017-09-22T01:45:13.438Z,33.07
2017-09-22T01:47:40.788Z,26.50
2017-09-22T01:50:08.127Z,30.07
2017-09-22T01:52:35.464Z,28.47
2017-09-22T01:55:02.791Z,26.33
2017-09-22T01:57:30.149Z,30.70
2017-09-22T01:59:57.480Z,39.57
2017-09-22T02:02:24.804Z,31.23
2017-09-22T02:04:52.110Z,27.83
2017-09-22T02:07:19.439Z,27.40
2017-09-22T02:09:46.740Z,31.60
2017-09-22T02:12:14.101Z,28.50
2017-09-22T02:14:41.440Z,25.23
2017-09-22T02:17:08.759Z,23.57
2017-09-22T02:19:36.076Z,31.20
2017-09-22T02:22:03.389Z,28.23
2017-09-22T02:24:30.703Z,29.03
2017-09-22T02:26:58.023Z,29.30
2017-09-22T02:29:25.331Z,29.23
2017-09-22T02:31:52.639Z,31.50
2017-09-22T02:34:19.972Z,34.87
2017-09-22T02:36:47.286Z,29.17
2017-09-22T02:39:14.605Z,27.43
2017-09-22T02:41:41.905Z,26.57
2017-09-22T02:44:09.230Z,29.07
2017-09-22T02:46:36.528Z,29.13
2017-09-22T02:49:03.861Z,27.80
2017-09-22T02:51:31.154Z,26.50
2017-09-22T02:53:58.504Z,26.80
2017-09-22T02:56:25.808Z,23.40
2017-09-22T02:58:53.116Z,27.63
2017-09-22T03:01:20.450Z,29.50
2017-09-22T03:03:47.754Z,32.73
2017-09-22T03:06:15.113Z,38.33
2017-09-22T03:08:42.412Z,31.50
2017-09-22T03:11:09.808Z,30.03
2017-09-22T03:13:37.400Z,34.17
2017-09-22T03:16:04.721Z,31.67
2017-09-22T03:18:32.340Z,31.40
2017-09-22T03:20:59.643Z,28.43
2017-09-22T03:23:26.984Z,30.43
2017-09-22T03:25:54.320Z,29.03
2017-09-22T03:28:21.643Z,33.30
2017-09-22T03:30:48.968Z,34.50
2017-09-22T03:33:16.268Z,33.43
2017-09-22T03:35:43.650Z,35.03
2017-09-22T03:38:10.928Z,34.63
2017-09-22T03:40:38.256Z,36.00
2017-09-22T03:43:05.576Z,39.00
2017-09-22T03:45:32.880Z,36.60
2017-09-22T03:48:00.191Z,34.07
2017-09-22T03:50:27.515Z,37.00
2017-09-22T03:52:54.836Z,34.40
2017-09-22T03:55:22.149Z,37.20
2017-09-22T03:57:49.464Z,31.60
2017-09-22T04:00:16.801Z,37.17
2017-09-22T04:02:44.131Z,32.97
2017-09-22T04:05:11.665Z,30.20
2017-09-22T04:07:38.984Z,36.93
2017-09-22T04:10:06.476Z,32.20
2017-09-22T04:12:33.816Z,30.10
2017-09-22T04:15:01.131Z,32.87
2017-09-22T04:17:28.427Z,32.50
2017-09-22T04:19:55.744Z,34.80
2017-09-22T04:22:23.053Z,32.60
2017-09-22T04:24:50.368Z,35.37
2017-09-22T04:27:17.676Z,37.37
2017-09-22T04:29:45.340Z,35.90
2017-09-22T04:32:12.931Z,36.13
2017-09-22T04:34:40.249Z,33.37
2017-09-22T04:37:07.567Z,37.17
2017-09-22T04:39:34.884Z,33.73
2017-09-22T04:42:02.208Z,32.83
2017-09-22T04:44:29.520Z,32.70
2017-09-22T04:46:56.815Z,34.60
2017-09-22T04:49:24.161Z,37.43
2017-09-22T04:51:51.460Z,36.20
2017-09-22T04:54:18.793Z,32.93
2017-09-22T04:56:46.086Z,32.20
2017-09-22T04:59:13.425Z,32.20
2017-09-22T05:01:40.720Z,34.13
2017-09-22T05:04:08.024Z,32.80
2017-09-22T05:06:35.350Z,31.43
2017-09-22T05:09:02.654Z,35.73
2017-09-22T05:11:30.336Z,25.83
2017-09-22T05:13:57.671Z,31.90
2017-09-22T05:16:24.996Z,30.33
2017-09-22T05:18:52.323Z,28.60
2017-09-22T05:21:19.672Z,25.60
2017-09-22T05:23:47.000Z,29.10
2017-09-22T05:26:14.347Z,33.93
2017-09-22T05:28:41.677Z,27.30
2017-09-22T05:31:09.048Z,27.07
2017-09-22T05:33:36.418Z,30.00
2017-09-22T05:36:03.853Z,31.43
2017-09-22T05:38:31.162Z,30.37
2017-09-22T05:40:58.501Z,34.07
2017-09-22T05:43:25.845Z,29.00
2017-09-22T05:45:53.914Z,32.30
2017-09-22T05:48:21.227Z,29.43
2017-09-22T05:50:48.572Z,26.37
2017-09-22T05:53:15.928Z,26.77
2017-09-22T05:55:43.256Z,27.23
2017-09-22T05:58:10.624Z,28.17
2017-09-22T06:00:37.963Z,29.23
2017-09-22T06:03:05.752Z,28.23
2017-09-22T06:05:33.955Z,24.43
2017-09-22T06:08:01.720Z,29.10
2017-09-22T06:10:29.384Z,26.33
2017-09-22T06:12:56.712Z,27.23
2017-09-22T06:15:24.022Z,26.57
2017-09-22T06:17:51.341Z,31.70
2017-09-22T06:20:18.649Z,27.70
2017-09-22T06:22:45.967Z,30.57
2017-09-22T06:25:13.301Z,29.93
2017-09-22T06:27:40.665Z,25.67
2017-09-22T06:30:07.994Z,28.20
2017-09-22T06:32:35.642Z,26.30
2017-09-22T06:35:02.977Z,23.13
2017-09-22T06:37:30.329Z,22.87
2017-09-22T06:39:57.644Z,23.30
2017-09-22T06:42:24.990Z,17.77
2017-09-22T06:44:52.327Z,16.73
2017-09-22T06:47:19.623Z,18.40
2017-09-22T06:49:46.959Z,17.83
2017-09-22T06:52:14.270Z,19.83
2017-09-22T06:54:41.581Z,20.20
2017-09-22T06:57:08.894Z,17.07
2017-09-22T06:59:36.220Z,19.03
2017-09-22T07:02:03.537Z,19.37
2017-09-22T07:04:30.879Z,16.23
2017-09-22T07:06:58.235Z,18.17
2017-09-22T07:09:25.575Z,14.50
2017-09-22T07:11:52.881Z,16.87
2017-09-22T07:14:20.201Z,11.67
2017-09-22T07:16:48.325Z,12.17
2017-09-22T07:19:15.669Z,13.60
2017-09-22T07:21:43.016Z,10.33
2017-09-22T07:24:10.363Z,14.47
2017-09-22T07:26:37.745Z,12.90
2017-09-22T07:29:05.616Z,16.57
2017-09-22T07:31:32.951Z,17.13
2017-09-22T07:34:00.312Z,14.67
2017-09-22T07:36:27.629Z,12.23
2017-09-22T07:38:54.979Z,8.80
2017-09-22T07:41:22.323Z,11.13
2017-09-22T07:43:49.643Z,15.07
2017-09-22T07:46:16.963Z,8.60
2017-09-22T07:48:44.282Z,9.80
2017-09-22T07:51:11.609Z,5.90
2017-09-22T07:53:38.927Z,7.20
2017-09-22T07:56:06.274Z,7.77
2017-09-22T07:58:33.978Z,9.70
2017-09-22T08:01:01.366Z,5.80
2017-09-22T08:03:28.722Z,4.40
2017-09-22T08:05:56.016Z,4.93
2017-09-22T08:08:23.321Z,5.00
2017-09-22T08:10:50.630Z,4.60
2017-09-22T08:13:17.937Z,5.37
2017-09-22T08:15:45.251Z,4.17
2017-09-22T08:18:12.581Z,3.90
2017-09-22T08:20:39.906Z,3.23
2017-09-22T08:23:07.220Z,2.90
2017-09-22T08:25:34.570Z,4.53
2017-09-22T08:28:01.934Z,6.40
2017-09-22T08:30:29.236Z,2.30
2017-09-22T08:32:56.578Z,4.30
2017-09-22T08:35:23.903Z,2.80
2017-09-22T08:37:51.245Z,4.63
2017-09-22T08:40:18.544Z,3.47
2017-09-22T08:42:45.922Z,5.40
2017-09-22T08:45:13.222Z,4.30
2017-09-22T08:47:40.549Z,4.50
2017-09-22T08:50:07.853Z,4.43
2017-09-22T08:52:35.173Z,2.77
2017-09-22T08:55:02.465Z,4.80
2017-09-22T08:57:29.817Z,2.47
2017-09-22T08:59:57.105Z,3.73
2017-09-22T09:02:24.397Z,3.10
2017-09-22T09:04:51.711Z,3.63
2017-09-22T09:07:19.044Z,5.90
2017-09-22T09:09:46.371Z,2.90
2017-09-22T09:12:13.657Z,2.87
2017-09-22T09:14:40.981Z,3.70
2017-09-22T09:17:08.374Z,3.20
2017-09-22T09:19:35.710Z,3.90
2017-09-22T09:22:02.999Z,3.30
2017-09-22T09:24:30.361Z,7.77
2017-09-22T09:26:57.672Z,6.77
2017-09-22T09:29:25.094Z,11.43
2017-09-22T09:31:52.467Z,4.40
2017-09-22T09:34:19.799Z,4.07
2017-09-22T09:36:47.113Z,3.90
2017-09-22T09:39:14.473Z,3.47
2017-09-22T09:41:41.775Z,3.53
2017-09-22T09:44:09.069Z,3.13
2017-09-22T09:46:36.409Z,3.90
2017-09-22T09:49:03.745Z,3.97
2017-09-22T09:51:31.073Z,5.40
2017-09-22T09:53:58.369Z,4.47
2017-09-22T09:56:25.671Z,3.60
2017-09-22T09:58:53.022Z,3.30
2017-09-22T10:01:20.391Z,3.30
2017-09-22T10:03:47.699Z,4.40
2017-09-22T10:06:15.040Z,6.10
2017-09-22T10:08:42.590Z,4.80
2017-09-22T10:11:09.907Z,3.73
2017-09-22T10:13:37.217Z,3.20
2017-09-22T10:16:04.510Z,5.23
2017-09-22T10:18:31.840Z,4.10
2017-09-22T10:20:59.169Z,4.20
2017-09-22T10:23:26.506Z,4.00
2017-09-22T10:25:53.846Z,5.13
2017-09-22T10:28:21.187Z,3.57
2017-09-22T10:30:48.857Z,5.47
2017-09-22T10:33:16.171Z,3.53
2017-09-22T10:35:43.485Z,3.83
2017-09-22T10:38:10.971Z,4.70
2017-09-22T10:40:38.290Z,6.37
2017-09-22T10:43:05.585Z,5.57
2017-09-22T10:45:32.908Z,3.67
2017-09-22T10:48:00.245Z,3.60
2017-09-22T10:50:27.594Z,6.13
2017-09-22T10:52:54.915Z,3.90
2017-09-22T10:55:22.281Z,7.50
2017-09-22T10:57:49.909Z,3.90
2017-09-22T11:00:17.201Z,3.80
2017-09-22T11:02:44.514Z,5.53
2017-09-22T11:05:11.832Z,3.93
2017-09-22T11:07:40.269Z,5.90
2017-09-22T11:10:08.057Z,3.87
2017-09-22T11:12:35.817Z,3.47
2017-09-22T11:15:03.128Z,3.10
2017-09-22T11:17:30.431Z,4.03
2017-09-22T11:19:57.726Z,4.43
2017-09-22T11:22:25.053Z,4.03
2017-09-22T11:24:52.343Z,6.00
2017-09-22T11:27:19.664Z,4.30
2017-09-22T11:29:47.015Z,3.10
2017-09-22T11:32:14.357Z,4.07
2017-09-22T11:34:41.977Z,3.73
2017-09-22T11:37:09.307Z,4.20
2017-09-22T11:39:36.616Z,4.60
2017-09-22T11:42:03.916Z,6.97
2017-09-22T11:44:31.278Z,3.73
2017-09-22T11:46:58.578Z,3.10
2017-09-22T11:49:25.893Z,2.90
2017-09-22T11:51:53.186Z,3.00
2017-09-22T11:54:20.529Z,3.07
2017-09-22T11:56:48.048Z,3.83
2017-09-22T11:59:15.528Z,2.97
2017-09-22T12:01:42.874Z,5.97
2017-09-22T12:04:10.185Z,4.40
2017-09-22T12:06:37.533Z,5.50
2017-09-22T12:09:04.839Z,3.10
2017-09-22T12:11:32.149Z,5.60
2017-09-22T12:13:59.491Z,3.37
2017-09-22T12:16:26.809Z,4.00
2017-09-22T12:18:54.105Z,6.03
2017-09-22T12:21:21.425Z,3.43
2017-09-22T12:23:48.719Z,8.17
2017-09-22T12:26:16.083Z,4.37
2017-09-22T12:28:43.377Z,3.57
2017-09-22T12:31:11.605Z,2.73
2017-09-22T12:33:38.922Z,2.57
2017-09-22T12:36:06.211Z,2.23
2017-09-22T12:38:33.788Z,3.53
2017-09-22T12:41:01.112Z,3.13
2017-09-22T12:43:28.435Z,2.60
2017-09-22T12:45:55.788Z,2.40
2017-09-22T12:48:23.095Z,3.20
2017-09-22T12:50:50.394Z,2.97
2017-09-22T12:53:17.702Z,2.53
2017-09-22T12:55:45.182Z,3.43
2017-09-22T12:58:12.484Z,2.90
2017-09-22T13:00:39.798Z,3.13
2017-09-22T13:03:07.080Z,3.87
2017-09-22T13:05:34.429Z,3.57
2017-09-22T13:08:02.003Z,3.30
2017-09-22T13:10:29.359Z,2.30
2017-09-22T13:12:56.639Z,3.93
2017-09-22T13:15:24.031Z,3.00
2017-09-22T13:17:51.325Z,2.43
2017-09-22T13:20:18.823Z,2.77
2017-09-22T13:22:46.146Z,4.20
2017-09-22T13:25:13.755Z,3.87
2017-09-22T13:27:41.069Z,4.77
2017-09-22T13:30:08.366Z,3.40
2017-09-22T13:32:35.693Z,3.00
2017-09-22T13:35:03.012Z,2.60
2017-09-22T13:37:30.348Z,2.73
2017-09-22T13:39:57.641Z,3.30
2017-09-22T13:42:24.932Z,4.67
2017-09-22T13:44:52.240Z,6.50
2017-09-22T13:47:19.571Z,2.70
2017-09-22T13:49:46.877Z,2.57
2017-09-22T13:52:14.188Z,6.60
2017-09-22T13:54:41.502Z,2.30
2017-09-22T13:57:08.797Z,3.53
2017-09-22T13:59:36.161Z,2.43
2017-09-22T14:02:03.462Z,7.07
2017-09-22T14:04:30.755Z,2.47
2017-09-22T14:06:58.070Z,3.57
2017-09-22T14:09:25.776Z,2.83
2017-09-22T14:11:53.234Z,2.63
2017-09-22T14:14:20.541Z,4.50
2017-09-22T14:16:48.016Z,3.33
2017-09-22T14:19:15.325Z,3.00
2017-09-22T14:21:42.923Z,5.60
2017-09-22T14:24:10.261Z,2.30
2017-09-22T14:26:37.595Z,2.73
2017-09-22T14:29:05.084Z,2.47
2017-09-22T14:31:32.677Z,2.33
2017-09-22T14:33:59.975Z,5.50
2017-09-22T14:36:27.293Z,2.33
2017-09-22T14:38:54.625Z,2.60
2017-09-22T14:41:21.953Z,3.30
2017-09-22T14:43:49.298Z,2.80
2017-09-22T14:46:16.665Z,1.97
2017-09-22T14:48:43.983Z,2.60
2017-09-22T14:51:11.353Z,3.30
2017-09-22T14:53:38.653Z,2.20
2017-09-22T14:56:05.970Z,2.47
2017-09-22T14:58:34.094Z,2.23
2017-09-22T15:01:01.438Z,2.27
2017-09-22T15:03:28.749Z,2.20
2017-09-22T15:05:56.108Z,2.77
2017-09-22T15:08:23.411Z,2.57
2017-09-22T15:10:50.712Z,4.60
2017-09-22T15:13:18.005Z,2.40
2017-09-22T15:15:45.348Z,2.20
2017-09-22T15:18:12.673Z,3.10
2017-09-22T15:20:39.984Z,2.53
2017-09-22T15:23:07.290Z,2.10
2017-09-22T15:25:34.629Z,3.57
2017-09-22T15:28:01.957Z,2.00
2017-09-22T15:30:29.314Z,2.17
2017-09-22T15:32:56.631Z,2.57
2017-09-22T15:35:23.961Z,2.10
2017-09-22T15:37:51.247Z,2.10
2017-09-22T15:40:18.550Z,2.00
2017-09-22T15:42:45.847Z,1.90
2017-09-22T15:45:13.144Z,2.00
2017-09-22T15:47:40.456Z,2.60
2017-09-22T15:50:08.151Z,3.10
2017-09-22T15:52:35.459Z,2.67
2017-09-22T15:55:02.762Z,2.00
2017-09-22T15:57:30.099Z,2.00
2017-09-22T15:59:57.380Z,2.30
2017-09-22T16:02:24.724Z,2.30
2017-09-22T16:04:52.026Z,2.10
2017-09-22T16:07:19.337Z,2.37
2017-09-22T16:09:46.628Z,2.23
2017-09-22T16:12:13.961Z,3.13
2017-09-22T16:14:41.280Z,2.47
2017-09-22T16:17:08.583Z,3.20
2017-09-22T16:19:35.882Z,3.33
2017-09-22T16:22:03.510Z,2.50
2017-09-22T16:24:30.883Z,5.23
2017-09-22T16:26:58.173Z,4.30
2017-09-22T16:29:25.485Z,8.63
2017-09-22T16:31:52.822Z,3.83
2017-09-22T16:34:20.173Z,9.93
2017-09-22T16:36:47.799Z,3.97
2017-09-22T16:39:15.153Z,7.50
2017-09-22T16:41:42.494Z,3.50
2017-09-22T16:44:09.838Z,5.90
2017-09-22T16:46:37.160Z,4.50
2017-09-22T16:49:04.489Z,4.47
2017-09-22T16:51:31.793Z,3.40
2017-09-22T16:53:59.096Z,6.20
2017-09-22T16:56:26.479Z,3.63
2017-09-22T16:58:53.796Z,4.20
2017-09-22T17:01:21.110Z,3.33
2017-09-22T17:03:48.425Z,4.97
2017-09-22T17:06:16.709Z,5.03
2017-09-22T17:08:44.012Z,7.07
2017-09-22T17:11:11.309Z,4.17
2017-09-22T17:13:38.656Z,4.20
2017-09-22T17:16:05.996Z,8.00
2017-09-22T17:18:33.362Z,8.43
2017-09-22T17:21:00.675Z,7.43
2017-09-22T17:23:28.053Z,10.83
2017-09-22T17:25:55.373Z,9.67
2017-09-22T17:28:22.705Z,10.70
2017-09-22T17:30:50.069Z,37.77
2017-09-22T17:33:17.378Z,33.90
2017-09-22T17:35:44.721Z,14.60
2017-09-22T17:38:12.045Z,12.50
2017-09-22T17:40:39.374Z,12.60
2017-09-22T17:43:06.683Z,13.73
2017-09-22T17:45:34.010Z,13.00
2017-09-22T17:48:01.318Z,15.57
2017-09-22T17:50:28.665Z,13.67
2017-09-22T17:52:56.285Z,14.33
2017-09-22T17:55:23.604Z,19.60
2017-09-22T17:57:50.908Z,15.53
2017-09-22T18:00:18.244Z,18.67
2017-09-22T18:02:45.569Z,15.53
2017-09-22T18:05:13.714Z,15.70
2017-09-22T18:07:41.034Z,14.77
2017-09-22T18:10:08.638Z,14.97
2017-09-22T18:12:35.970Z,16.70
2017-09-22T18:15:03.324Z,15.70
2017-09-22T18:17:30.645Z,21.33
2017-09-22T18:19:58.021Z,19.60
2017-09-22T18:22:25.332Z,14.53
2017-09-22T18:24:52.666Z,16.67
2017-09-22T18:27:19.981Z,17.27
2017-09-22T18:29:47.276Z,15.97
2017-09-22T18:32:14.599Z,20.73
2017-09-22T18:34:41.911Z,20.03
2017-09-22T18:37:09.245Z,19.00
2017-09-22T18:39:36.611Z,18.20
2017-09-22T18:42:03.974Z,21.13
2017-09-22T18:44:31.341Z,17.83
2017-09-22T18:46:58.670Z,20.30
2017-09-22T18:49:26.046Z,21.90
2017-09-22T18:51:53.375Z,17.77
2017-09-22T18:54:20.691Z,25.43
2017-09-22T18:56:48.304Z,23.03
2017-09-22T18:59:15.720Z,21.37
2017-09-22T19:01:43.048Z,25.97
2017-09-22T19:04:10.366Z,21.50
2017-09-22T19:06:37.685Z,23.10
2017-09-22T19:09:04.993Z,26.03
2017-09-22T19:11:32.336Z,26.87
2017-09-22T19:13:59.647Z,29.60
2017-09-22T19:16:27.301Z,27.37
2017-09-22T19:18:54.819Z,32.17
2017-09-22T19:21:22.116Z,26.57
2017-09-22T19:23:49.446Z,26.73
2017-09-22T19:26:16.766Z,23.43
2017-09-22T19:28:47.505Z,23.67
2017-09-22T19:31:14.810Z,25.63
2017-09-22T19:33:42.137Z,21.73
2017-09-22T19:36:09.470Z,25.07
2017-09-22T19:38:36.830Z,27.07
2017-09-22T19:41:04.147Z,27.67
2017-09-22T19:43:31.521Z,27.73
2017-09-22T19:45:58.820Z,34.77
2017-09-22T19:48:26.506Z,27.03
2017-09-22T19:50:53.829Z,24.87
2017-09-22T19:53:21.163Z,28.83
2017-09-22T19:55:48.516Z,34.63
2017-09-22T19:58:15.862Z,30.63
2017-09-22T20:00:43.198Z,30.97
2017-09-22T20:03:10.529Z,31.47
2017-09-22T20:05:37.866Z,28.37
2017-09-22T20:08:07.153Z,30.27
2017-09-22T20:10:34.513Z,30.63
2017-09-22T20:13:01.857Z,35.77
2017-09-22T20:15:29.220Z,40.97
2017-09-22T20:17:57.383Z,35.10
2017-09-22T20:20:24.826Z,37.17
2017-09-22T20:22:52.229Z,31.33
2017-09-22T20:25:19.554Z,37.33
2017-09-22T20:27:46.919Z,39.13
2017-09-22T20:30:14.282Z,34.53
2017-09-22T20:32:41.598Z,35.00
2017-09-22T20:35:09.026Z,36.63
2017-09-22T20:37:36.386Z,34.00
2017-09-22T20:40:03.788Z,37.63
2017-09-22T20:42:31.064Z,39.20
2017-09-22T20:44:58.432Z,38.83
2017-09-22T20:47:25.742Z,39.03
2017-09-22T20:49:53.086Z,38.50
2017-09-22T20:52:20.409Z,39.13
2017-09-22T20:54:48.072Z,35.87
2017-09-22T20:57:15.402Z,47.43
2017-09-22T20:59:42.787Z,43.27
2017-09-22T21:02:10.199Z,43.67
2017-09-22T21:04:37.561Z,57.40
2017-09-22T21:07:04.920Z,68.70
2017-09-22T21:09:32.250Z,52.30
2017-09-22T21:11:59.772Z,45.73
2017-09-22T21:14:27.096Z,60.80
2017-09-22T21:16:54.431Z,57.97
2017-09-22T21:19:21.769Z,57.43
2017-09-22T21:21:49.066Z,50.17
2017-09-22T21:24:16.379Z,54.03
2017-09-22T21:26:43.715Z,53.03
2017-09-22T21:29:11.045Z,58.00
2017-09-22T21:31:38.697Z,48.47
2017-09-22T21:34:06.050Z,50.80
2017-09-22T21:36:33.476Z,52.73
2017-09-22T21:39:00.809Z,53.73
2017-09-22T21:41:29.094Z,47.53
2017-09-22T21:43:56.417Z,48.27
2017-09-22T21:46:23.764Z,48.83
2017-09-22T21:48:51.101Z,50.67
2017-09-22T21:51:18.434Z,50.73
2017-09-22T21:53:45.737Z,49.50
2017-09-22T21:56:13.057Z,51.90
2017-09-22T21:58:40.661Z,60.63
2017-09-22T22:01:08.040Z,52.90
2017-09-22T22:03:41.205Z,55.97
2017-09-22T22:06:14.410Z,50.80
2017-09-22T22:08:41.713Z,53.07
2017-09-22T22:11:09.061Z,48.93
2017-09-22T22:13:36.398Z,46.33
2017-09-22T22:16:03.728Z,48.63
2017-09-22T22:18:31.088Z,49.67
2017-09-22T22:20:58.414Z,54.40
2017-09-22T22:23:25.756Z,52.20
2017-09-22T22:25:53.114Z,49.30
2017-09-22T22:28:20.453Z,52.93
2017-09-22T22:30:47.786Z,49.00
2017-09-22T22:33:15.133Z,49.47
2017-09-22T22:35:42.458Z,47.43
2017-09-22T22:38:13.629Z,53.97
2017-09-22T22:40:40.948Z,53.43
2017-09-22T22:43:08.309Z,51.97
2017-09-22T22:45:35.607Z,51.10
2017-09-22T22:48:02.993Z,47.30
2017-09-22T22:50:30.598Z,49.40
2017-09-22T22:52:57.987Z,44.17
2017-09-22T22:55:25.293Z,45.80
2017-09-22T22:57:52.622Z,50.00
2017-09-22T23:00:19.937Z,46.50
2017-09-22T23:02:47.241Z,44.63
2017-09-22T23:05:14.570Z,45.67
2017-09-22T23:07:41.885Z,46.27
2017-09-22T23:10:09.237Z,40.10
2017-09-22T23:12:36.569Z,42.30
2017-09-22T23:15:03.925Z,49.50
2017-09-22T23:17:31.544Z,59.17
2017-09-22T23:19:58.880Z,56.07
2017-09-22T23:22:26.175Z,47.57
2017-09-22T23:24:53.508Z,47.53
2017-09-22T23:27:20.812Z,46.90
2017-09-22T23:29:48.123Z,47.93
2017-09-22T23:32:15.428Z,41.87
2017-09-22T23:34:42.757Z,43.70
2017-09-22T23:37:10.088Z,46.10
2017-09-22T23:39:37.441Z,44.70
2017-09-22T23:42:04.756Z,44.33
2017-09-22T23:44:32.134Z,42.97
2017-09-22T23:46:59.449Z,47.13
2017-09-22T23:49:26.806Z,50.40
2017-09-22T23:51:54.130Z,56.50
2017-09-22T23:54:21.493Z,50.87
2017-09-22T23:56:48.818Z,56.90
2017-09-22T23:59:16.178Z,56.37
